createdAt,value
2022-08-04T00:00:08.173Z,10.48
2022-08-04T00:04:44.768Z,10.65
2022-08-04T00:09:05.551Z,10.25
2022-08-04T00:13:09.760Z,10.55
2022-08-04T00:17:12.796Z,10.15
2022-08-04T00:21:18.333Z,9.77
2022-08-04T00:25:20.760Z,11.05
2022-08-04T00:29:23.392Z,11.25
2022-08-04T00:33:26.767Z,11.02
2022-08-04T00:37:29.086Z,11.10
2022-08-04T00:41:56.745Z,11.35
2022-08-04T00:46:36.123Z,10.63
2022-08-04T00:51:12.320Z,10.32
2022-08-04T00:55:31.503Z,11.10
2022-08-04T01:00:05.725Z,11.80
2022-08-04T01:04:25.808Z,10.40
2022-08-04T01:08:33.925Z,11.63
2022-08-04T01:13:01.043Z,10.83
2022-08-04T01:17:28.634Z,10.32
2022-08-04T01:21:30.950Z,10.30
2022-08-04T01:25:54.357Z,10.38
2022-08-04T01:30:01.455Z,10.55
2022-08-04T01:34:06.778Z,10.93
2022-08-04T01:38:34.552Z,12.38
2022-08-04T01:42:37.394Z,11.68
2022-08-04T01:46:40.918Z,9.32
2022-08-04T01:50:44.834Z,10.55
2022-08-04T01:54:48.365Z,9.85
2022-08-04T01:58:50.712Z,9.73
2022-08-04T02:02:54.336Z,11.15
2022-08-04T02:07:25.732Z,11.15
2022-08-04T02:11:29.168Z,12.40
2022-08-04T02:15:42.868Z,10.23
2022-08-04T02:20:09.618Z,10.20
2022-08-04T02:24:15.510Z,11.05
2022-08-04T02:28:23.603Z,10.38
2022-08-04T02:32:28.634Z,11.80
2022-08-04T02:36:41.718Z,12.05
2022-08-04T02:40:46.652Z,11.20
2022-08-04T02:44:52.431Z,10.57
2022-08-04T02:48:56.303Z,11.27
2022-08-04T02:53:03.248Z,11.73
2022-08-04T02:57:12.203Z,10.45
2022-08-04T03:01:15.464Z,11.93
2022-08-04T03:05:20.442Z,11.80
2022-08-04T03:09:40.943Z,11.60
2022-08-04T03:14:19.943Z,11.23
2022-08-04T03:18:30.866Z,10.18
2022-08-04T03:23:14.499Z,11.15
2022-08-04T03:27:31.856Z,11.82
2022-08-04T03:32:06.887Z,11.68
2022-08-04T03:36:53.628Z,12.15
2022-08-04T03:41:06.823Z,11.32
2022-08-04T03:45:26.102Z,12.00
2022-08-04T03:49:49.552Z,11.30
2022-08-04T03:54:30.594Z,11.75
2022-08-04T03:59:10.136Z,10.10
2022-08-04T04:03:38.506Z,10.52
2022-08-04T04:08:19.005Z,12.95
2022-08-04T04:12:37.030Z,12.43
2022-08-04T04:17:03.726Z,10.68
2022-08-04T04:21:08.350Z,10.60
2022-08-04T04:25:29.705Z,9.85
2022-08-04T04:30:07.546Z,8.90
2022-08-04T04:34:31.660Z,8.15
2022-08-04T04:38:42.797Z,9.18
2022-08-04T04:42:54.070Z,8.25
2022-08-04T04:47:08.188Z,7.35
2022-08-04T04:51:28.731Z,7.47
2022-08-04T04:55:48.287Z,6.68
2022-08-04T05:00:02.608Z,6.60
2022-08-04T05:04:38.274Z,7.35
2022-08-04T05:08:54.348Z,7.40
2022-08-04T05:14:38.593Z,7.07
2022-08-04T05:17:39.807Z,6.50
2022-08-04T05:22:14.440Z,6.60
2022-08-04T05:26:21.475Z,6.88
2022-08-04T05:30:27.466Z,5.93
2022-08-04T05:34:34.153Z,5.68
2022-08-04T05:38:40.933Z,5.60
2022-08-04T05:42:43.916Z,5.10
2022-08-04T05:46:53.904Z,4.60
2022-08-04T05:51:01.066Z,4.88
2022-08-04T05:55:05.637Z,5.28
2022-08-04T05:59:11.068Z,4.88
2022-08-04T06:03:15.686Z,4.95
2022-08-04T06:07:18.772Z,4.47
2022-08-04T06:11:21.871Z,5.15
2022-08-04T06:15:27.124Z,4.72
2022-08-04T06:19:59.803Z,4.13
2022-08-04T06:24:04.352Z,4.03
2022-08-04T06:28:09.628Z,3.55
2022-08-04T06:32:41.430Z,3.28
2022-08-04T06:36:45.067Z,3.22
2022-08-04T06:40:47.407Z,3.13
2022-08-04T06:44:52.891Z,3.28
2022-08-04T06:48:56.866Z,3.30
2022-08-04T06:52:59.010Z,2.67
2022-08-04T06:57:02.777Z,3.05
2022-08-04T07:01:06.050Z,3.05
2022-08-04T07:05:10.428Z,3.88
2022-08-04T07:09:13.104Z,3.35
2022-08-04T07:13:16.071Z,2.72
2022-08-04T07:17:21.395Z,2.90
2022-08-04T07:21:24.099Z,2.65
2022-08-04T07:25:58.699Z,2.70
2022-08-04T07:29:49.190Z,2.55
2022-08-04T07:34:20.749Z,2.15
2022-08-04T07:38:14.981Z,2.65
2022-08-04T07:42:20.568Z,2.63
2022-08-04T07:46:22.958Z,2.65
2022-08-04T07:50:26.383Z,2.25
2022-08-04T07:54:29.452Z,2.00
2022-08-04T07:58:31.438Z,2.38
2022-08-04T08:02:35.866Z,2.00
2022-08-04T08:06:43.095Z,2.33
2022-08-04T08:10:48.112Z,2.42
2022-08-04T08:14:50.384Z,2.17
2022-08-04T08:18:52.851Z,2.30
2022-08-04T08:22:54.885Z,1.98
2022-08-04T08:26:58.411Z,2.22
2022-08-04T08:31:00.960Z,2.60
2022-08-04T08:35:09.833Z,1.95
2022-08-04T08:39:38.099Z,1.65
2022-08-04T08:44:00.281Z,2.05
2022-08-04T08:48:27.785Z,2.20
2022-08-04T08:53:00.771Z,2.08
2022-08-04T08:57:13.862Z,1.80
2022-08-04T09:01:34.554Z,2.08
2022-08-04T09:05:48.789Z,1.25
2022-08-04T09:10:03.104Z,1.80
2022-08-04T09:14:24.247Z,1.75
2022-08-04T09:19:37.977Z,2.45
2022-08-04T09:23:58.960Z,2.80
2022-08-04T09:28:09.490Z,2.85
2022-08-04T09:32:33.645Z,2.70
2022-08-04T09:37:13.949Z,2.63
2022-08-04T09:41:48.428Z,2.55
2022-08-04T09:46:15.117Z,2.83
2022-08-04T09:50:29.591Z,2.30
2022-08-04T09:54:43.577Z,2.88
2022-08-04T09:59:01.789Z,2.40
2022-08-04T10:03:04.666Z,3.07
2022-08-04T10:07:24.676Z,2.45
2022-08-04T10:11:55.384Z,2.25
2022-08-04T10:16:11.678Z,2.15
2022-08-04T10:20:52.900Z,2.70
2022-08-04T10:26:02.561Z,2.45
2022-08-04T10:29:45.831Z,2.22
2022-08-04T10:34:13.093Z,2.40
2022-08-04T10:38:27.166Z,2.28
2022-08-04T10:42:32.398Z,2.25
2022-08-04T10:46:58.323Z,2.38
2022-08-04T10:51:00.654Z,2.10
2022-08-04T10:55:13.197Z,2.25
2022-08-04T10:59:21.766Z,2.50
2022-08-04T11:03:31.511Z,2.25
2022-08-04T11:07:36.832Z,2.78
2022-08-04T11:12:00.429Z,2.20
2022-08-04T11:16:10.140Z,2.03
2022-08-04T11:20:39.139Z,2.38
2022-08-04T11:29:16.724Z,2.15
2022-08-04T11:33:43.772Z,2.45
2022-08-04T11:37:52.267Z,2.42
2022-08-04T11:42:18.636Z,2.55
2022-08-04T11:46:29.203Z,1.98
2022-08-04T11:50:43.498Z,2.60
2022-08-04T11:54:52.738Z,2.50
2022-08-04T11:58:58.441Z,2.30
2022-08-04T12:03:30.555Z,2.15
2022-08-04T12:07:50.657Z,2.22
2022-08-04T12:12:08.675Z,2.42
2022-08-04T12:16:30.206Z,2.28
2022-08-04T12:20:41.137Z,2.35
2022-08-04T12:24:54.755Z,2.20
2022-08-04T12:29:10.777Z,1.95
2022-08-04T12:34:03.473Z,1.88
2022-08-04T12:38:14.515Z,2.10
2022-08-04T12:42:35.247Z,2.15
2022-08-04T12:46:38.586Z,2.00
2022-08-04T12:50:42.336Z,2.03
2022-08-04T12:54:47.203Z,2.45
2022-08-04T12:58:52.629Z,2.00
2022-08-04T13:03:00.787Z,1.92
2022-08-04T13:11:14.847Z,1.77
2022-08-04T13:15:23.355Z,1.60
2022-08-04T13:24:11.014Z,1.85
2022-08-04T13:27:55.464Z,1.90
2022-08-04T13:32:01.240Z,1.67
2022-08-04T13:36:05.531Z,1.73
2022-08-04T13:40:12.110Z,1.70
2022-08-04T13:44:20.377Z,1.90
2022-08-04T13:48:32.760Z,1.70
2022-08-04T13:52:35.368Z,1.83
2022-08-04T13:56:42.045Z,1.98
2022-08-04T14:00:53.668Z,2.20
2022-08-04T14:05:01.991Z,1.85
2022-08-04T14:13:29.695Z,1.52
2022-08-04T14:17:43.709Z,2.30
2022-08-04T14:21:46.035Z,2.00
2022-08-04T14:25:48.064Z,2.13
2022-08-04T14:29:50.403Z,1.88
2022-08-04T14:34:02.864Z,2.22
2022-08-04T14:38:11.956Z,1.60
2022-08-04T14:42:15.309Z,1.85
2022-08-04T14:46:18.345Z,1.63
2022-08-04T14:50:33.063Z,1.42
2022-08-04T14:54:36.056Z,1.60
2022-08-04T14:58:39.652Z,1.50
2022-08-04T15:02:43.465Z,2.03
2022-08-04T15:06:47.689Z,1.77
2022-08-04T15:10:50.097Z,2.00
2022-08-04T15:14:52.459Z,1.73
2022-08-04T15:18:56.975Z,1.63
2022-08-04T15:23:00.239Z,1.83
2022-08-04T15:27:04.620Z,1.60
2022-08-04T15:32:01.730Z,2.00
2022-08-04T15:35:39.168Z,29.60
2022-08-04T15:39:53.118Z,2.10
2022-08-04T15:44:26.516Z,1.60
2022-08-04T15:48:29.192Z,1.70
2022-08-04T15:53:10.255Z,1.30
2022-08-04T15:57:15.065Z,1.27
2022-08-04T16:01:18.245Z,1.33
2022-08-04T16:05:20.334Z,1.30
2022-08-04T16:09:45.115Z,1.30
2022-08-04T16:14:01.693Z,1.55
2022-08-04T16:18:04.572Z,1.55
2022-08-04T16:22:07.395Z,1.35
2022-08-04T16:26:10.256Z,1.25
2022-08-04T16:30:15.134Z,1.23
2022-08-04T16:34:48.567Z,1.40
2022-08-04T16:39:04.505Z,1.80
2022-08-04T16:43:13.204Z,1.70
2022-08-04T16:47:47.678Z,1.70
2022-08-04T16:51:51.539Z,1.95
2022-08-04T16:55:55.249Z,1.65
2022-08-04T16:59:57.615Z,1.88
2022-08-04T17:04:07.478Z,1.40
2022-08-04T17:12:32.403Z,1.77
2022-08-04T17:16:43.004Z,1.60
2022-08-04T17:21:01.176Z,1.60
2022-08-04T17:25:04.704Z,1.70
2022-08-04T17:29:08.321Z,1.80
2022-08-04T17:33:15.108Z,1.88
2022-08-04T17:37:38.550Z,2.00
2022-08-04T17:41:41.913Z,1.88
2022-08-04T17:46:28.898Z,1.95
2022-08-04T17:55:03.012Z,2.17
2022-08-04T17:59:57.162Z,1.95
2022-08-04T18:03:51.577Z,2.58
2022-08-04T18:08:39.099Z,1.77
2022-08-04T18:12:35.748Z,1.90
2022-08-04T18:16:45.500Z,2.58
2022-08-04T18:20:50.087Z,2.65
2022-08-04T18:24:55.558Z,2.33
2022-08-04T18:28:59.038Z,2.50
2022-08-04T18:33:24.266Z,2.90
2022-08-04T18:38:06.106Z,2.70
2022-08-04T18:42:02.596Z,2.20
2022-08-04T18:46:08.779Z,2.50
2022-08-04T18:51:01.666Z,2.72
2022-08-04T18:54:42.009Z,3.20
2022-08-04T18:58:45.120Z,3.72
2022-08-04T19:02:47.741Z,3.10
2022-08-04T19:06:50.202Z,3.55
2022-08-04T19:10:54.182Z,3.13
2022-08-04T19:15:08.569Z,3.22
2022-08-04T19:19:14.232Z,3.50
2022-08-04T19:24:27.517Z,3.22
2022-08-04T19:27:40.038Z,2.75
2022-08-04T19:31:43.063Z,4.30
2022-08-04T19:35:46.333Z,3.90
2022-08-04T19:39:53.205Z,3.60
2022-08-04T19:43:56.299Z,3.90
2022-08-04T19:48:17.949Z,4.25
2022-08-04T19:52:33.620Z,4.10
2022-08-04T19:56:40.739Z,4.10
2022-08-04T20:05:08.805Z,4.18
2022-08-04T20:09:26.734Z,4.60
2022-08-04T20:13:37.177Z,5.10
2022-08-04T20:18:08.515Z,5.07
2022-08-04T20:22:03.436Z,5.05
2022-08-04T20:26:05.564Z,6.30
2022-08-04T20:30:13.876Z,4.70
2022-08-04T20:34:16.260Z,5.47
2022-08-04T20:38:33.416Z,5.85
2022-08-04T20:42:36.306Z,5.40
2022-08-04T20:46:38.632Z,5.25
2022-08-04T20:50:40.848Z,5.68
2022-08-04T20:54:48.477Z,5.82
2022-08-04T20:58:51.105Z,5.35
2022-08-04T21:02:54.016Z,6.10
2022-08-04T21:06:57.436Z,5.88
2022-08-04T21:11:00.393Z,6.72
2022-08-04T21:15:15.917Z,5.72
2022-08-04T21:19:27.072Z,6.35
2022-08-04T21:23:29.259Z,6.72
2022-08-04T21:27:39.507Z,6.07
2022-08-04T21:31:50.250Z,6.60
2022-08-04T21:35:55.146Z,6.10
2022-08-04T21:39:59.459Z,6.32
2022-08-04T21:44:18.194Z,6.50
2022-08-04T21:48:21.441Z,6.90
2022-08-04T21:52:23.692Z,5.22
2022-08-04T21:56:26.657Z,6.18
2022-08-04T22:00:29.191Z,6.20
2022-08-04T22:04:31.856Z,6.07
2022-08-04T22:08:35.724Z,5.97
2022-08-04T22:12:41.031Z,6.50
2022-08-04T22:16:46.492Z,5.78
2022-08-04T22:20:48.668Z,6.28
2022-08-04T22:24:51.399Z,6.20
2022-08-04T22:28:54.355Z,6.28
2022-08-04T22:32:56.881Z,6.10
2022-08-04T22:36:58.947Z,7.00
2022-08-04T22:41:05.237Z,5.38
2022-08-04T22:45:09.244Z,5.68
2022-08-04T22:49:11.473Z,5.38
2022-08-04T22:53:17.697Z,6.55
2022-08-04T22:57:24.946Z,5.95
2022-08-04T23:02:00.940Z,6.82
2022-08-04T23:06:10.962Z,6.88
2022-08-04T23:10:13.759Z,7.03
2022-08-04T23:14:16.086Z,6.78
2022-08-04T23:18:18.092Z,7.35
2022-08-04T23:22:41.481Z,6.57
2022-08-04T23:26:42.628Z,6.50
2022-08-04T23:30:47.117Z,6.78
2022-08-04T23:34:49.196Z,6.60
2022-08-04T23:38:51.454Z,7.00
2022-08-04T23:42:53.486Z,7.60
2022-08-04T23:47:01.716Z,8.18
2022-08-04T23:51:10.362Z,7.65
2022-08-04T23:55:19.075Z,7.38
2022-08-04T23:59:52.466Z,7.10
